sensor_id;sensor_type;location;lat;lon;timestamp;temperature;humidity
50969;DHT22;36982;51.474;7.228;2022-12-10T00:00:17;1.00;99.90
50969;DHT22;36982;51.474;7.228;2022-12-10T00:02:43;0.80;99.90
50969;DHT22;36982;51.474;7.228;2022-12-10T00:05:08;0.80;99.90
50969;DHT22;36982;51.474;7.228;2022-12-10T00:07:34;0.80;99.90
50969;DHT22;36982;51.474;7.228;2022-12-10T00:09:59;0.80;99.90
50969;DHT22;36982;51.474;7.228;2022-12-10T00:12:25;0.90;99.90
50969;DHT22;36982;51.474;7.228;2022-12-10T00:14:51;0.80;99.90
50969;DHT22;36982;51.474;7.228;2022-12-10T00:17:16;0.90;99.90
50969;DHT22;36982;51.474;7.228;2022-12-10T00:19:42;0.90;99.90
50969;DHT22;36982;51.474;7.228;2022-12-10T00:22:07;1.00;99.90
50969;DHT22;36982;51.474;7.228;2022-12-10T00:24:33;1.10;99.90
50969;DHT22;36982;51.474;7.228;2022-12-10T00:26:59;1.10;99.90
50969;DHT22;36982;51.474;7.228;2022-12-10T00:29:25;1.10;99.90
50969;DHT22;36982;51.474;7.228;2022-12-10T00:31:50;1.10;99.90
50969;DHT22;36982;51.474;7.228;2022-12-10T00:34:16;1.10;99.90
50969;DHT22;36982;51.474;7.228;2022-12-10T00:36:46;1.10;99.90
50969;DHT22;36982;51.474;7.228;2022-12-10T00:39:16;1.10;99.90
50969;DHT22;36982;51.474;7.228;2022-12-10T00:41:42;1.10;99.90
50969;DHT22;36982;51.474;7.228;2022-12-10T00:44:09;0.90;99.90
50969;DHT22;36982;51.474;7.228;2022-12-10T00:46:34;0.90;99.90
50969;DHT22;36982;51.474;7.228;2022-12-10T00:49:00;1.00;99.90
50969;DHT22;36982;51.474;7.228;2022-12-10T00:51:27;1.00;99.90
50969;DHT22;36982;51.474;7.228;2022-12-10T00:53:54;1.00;99.90
50969;DHT22;36982;51.474;7.228;2022-12-10T00:56:22;1.00;99.90
50969;DHT22;36982;51.474;7.228;2022-12-10T00:58:49;1.00;99.90
50969;DHT22;36982;51.474;7.228;2022-12-10T01:03:44;1.10;99.90
50969;DHT22;36982;51.474;7.228;2022-12-10T01:06:17;1.20;99.90
50969;DHT22;36982;51.474;7.228;2022-12-10T01:08:44;1.30;99.90
50969;DHT22;36982;51.474;7.228;2022-12-10T01:11:12;1.20;99.90
50969;DHT22;36982;51.474;7.228;2022-12-10T01:13:38;1.20;99.90
50969;DHT22;36982;51.474;7.228;2022-12-10T01:16:06;1.20;99.90
50969;DHT22;36982;51.474;7.228;2022-12-10T01:18:32;1.20;99.90
50969;DHT22;36982;51.474;7.228;2022-12-10T01:21:05;1.30;99.90
50969;DHT22;36982;51.474;7.228;2022-12-10T01:23:33;1.20;99.90
50969;DHT22;36982;51.474;7.228;2022-12-10T01:26:01;1.30;99.90
50969;DHT22;36982;51.474;7.228;2022-12-10T01:28:29;1.00;99.90
50969;DHT22;36982;51.474;7.228;2022-12-10T01:30:54;0.80;99.90
50969;DHT22;36982;51.474;7.228;2022-12-10T01:33:20;0.70;99.90
50969;DHT22;36982;51.474;7.228;2022-12-10T01:35:45;0.70;99.90
50969;DHT22;36982;51.474;7.228;2022-12-10T01:38:11;0.60;99.90
50969;DHT22;36982;51.474;7.228;2022-12-10T01:40:38;0.40;99.90
50969;DHT22;36982;51.474;7.228;2022-12-10T01:43:04;0.40;99.90
50969;DHT22;36982;51.474;7.228;2022-12-10T01:45:30;0.30;99.90
50969;DHT22;36982;51.474;7.228;2022-12-10T01:47:56;0.30;99.90
50969;DHT22;36982;51.474;7.228;2022-12-10T01:50:22;0.30;99.90
50969;DHT22;36982;51.474;7.228;2022-12-10T01:52:48;0.50;99.90
50969;DHT22;36982;51.474;7.228;2022-12-10T01:55:38;0.60;99.90
50969;DHT22;36982;51.474;7.228;2022-12-10T01:58:04;0.60;99.90
50969;DHT22;36982;51.474;7.228;2022-12-10T02:00:32;0.60;99.90
50969;DHT22;36982;51.474;7.228;2022-12-10T02:03:06;0.70;99.90
50969;DHT22;36982;51.474;7.228;2022-12-10T02:05:51;0.70;99.90
50969;DHT22;36982;51.474;7.228;2022-12-10T02:08:30;0.80;99.90
50969;DHT22;36982;51.474;7.228;2022-12-10T02:11:16;0.90;99.90
50969;DHT22;36982;51.474;7.228;2022-12-10T02:13:53;0.90;99.90
50969;DHT22;36982;51.474;7.228;2022-12-10T02:16:31;1.00;99.90
50969;DHT22;36982;51.474;7.228;2022-12-10T02:19:20;1.10;99.90
50969;DHT22;36982;51.474;7.228;2022-12-10T02:21:49;1.20;99.90
50969;DHT22;36982;51.474;7.228;2022-12-10T02:24:20;1.20;99.90
50969;DHT22;36982;51.474;7.228;2022-12-10T02:27:11;1.10;99.90
50969;DHT22;36982;51.474;7.228;2022-12-10T02:29:41;1.10;99.90
50969;DHT22;36982;51.474;7.228;2022-12-10T02:32:15;1.00;99.90
50969;DHT22;36982;51.474;7.228;2022-12-10T02:34:45;1.10;99.90
50969;DHT22;36982;51.474;7.228;2022-12-10T02:37:20;1.20;99.90
50969;DHT22;36982;51.474;7.228;2022-12-10T02:39:48;1.30;99.90
50969;DHT22;36982;51.474;7.228;2022-12-10T02:42:16;1.40;99.90
50969;DHT22;36982;51.474;7.228;2022-12-10T02:44:44;1.40;99.90
50969;DHT22;36982;51.474;7.228;2022-12-10T02:47:12;1.40;99.90
50969;DHT22;36982;51.474;7.228;2022-12-10T02:49:40;1.40;99.90
50969;DHT22;36982;51.474;7.228;2022-12-10T02:52:12;1.50;99.90
50969;DHT22;36982;51.474;7.228;2022-12-10T02:54:46;1.50;99.90
50969;DHT22;36982;51.474;7.228;2022-12-10T03:00:22;1.40;99.90
50969;DHT22;36982;51.474;7.228;2022-12-10T03:05:22;1.50;99.90
50969;DHT22;36982;51.474;7.228;2022-12-10T03:08:09;1.40;99.90
50969;DHT22;36982;51.474;7.228;2022-12-10T03:13:13;1.40;99.90
50969;DHT22;36982;51.474;7.228;2022-12-10T03:15:41;1.40;99.90
50969;DHT22;36982;51.474;7.228;2022-12-10T03:18:09;1.60;99.90
50969;DHT22;36982;51.474;7.228;2022-12-10T03:20:39;1.70;99.90
50969;DHT22;36982;51.474;7.228;2022-12-10T03:23:08;1.70;99.90
50969;DHT22;36982;51.474;7.228;2022-12-10T03:25:36;1.70;99.90
50969;DHT22;36982;51.474;7.228;2022-12-10T03:28:01;1.70;99.90
50969;DHT22;36982;51.474;7.228;2022-12-10T03:30:28;1.70;99.90
50969;DHT22;36982;51.474;7.228;2022-12-10T03:32:56;1.70;99.90
50969;DHT22;36982;51.474;7.228;2022-12-10T03:35:23;1.70;99.90
50969;DHT22;36982;51.474;7.228;2022-12-10T03:37:49;1.70;99.90
50969;DHT22;36982;51.474;7.228;2022-12-10T03:40:20;1.70;99.90
50969;DHT22;36982;51.474;7.228;2022-12-10T03:42:46;1.70;99.90
50969;DHT22;36982;51.474;7.228;2022-12-10T03:45:12;1.70;99.90
50969;DHT22;36982;51.474;7.228;2022-12-10T03:47:40;1.70;99.90
50969;DHT22;36982;51.474;7.228;2022-12-10T03:50:06;1.70;99.90
50969;DHT22;36982;51.474;7.228;2022-12-10T03:52:31;1.70;99.90
50969;DHT22;36982;51.474;7.228;2022-12-10T03:54:57;1.70;99.90
50969;DHT22;36982;51.474;7.228;2022-12-10T03:57:23;1.70;99.90
50969;DHT22;36982;51.474;7.228;2022-12-10T03:59:49;1.60;99.90
50969;DHT22;36982;51.474;7.228;2022-12-10T04:02:14;1.40;99.90
50969;DHT22;36982;51.474;7.228;2022-12-10T04:04:40;1.30;99.90
50969;DHT22;36982;51.474;7.228;2022-12-10T04:07:05;1.20;99.90
50969;DHT22;36982;51.474;7.228;2022-12-10T04:09:31;1.10;99.90
50969;DHT22;36982;51.474;7.228;2022-12-10T04:11:58;1.20;99.90
50969;DHT22;36982;51.474;7.228;2022-12-10T04:14:25;1.20;99.90
50969;DHT22;36982;51.474;7.228;2022-12-10T04:17:09;1.20;99.90
50969;DHT22;36982;51.474;7.228;2022-12-10T04:19:35;1.20;99.90
50969;DHT22;36982;51.474;7.228;2022-12-10T04:22:01;1.00;99.90
50969;DHT22;36982;51.474;7.228;2022-12-10T04:24:45;0.90;99.90
50969;DHT22;36982;51.474;7.228;2022-12-10T04:27:32;0.80;99.90
50969;DHT22;36982;51.474;7.228;2022-12-10T04:29:59;0.90;99.90
50969;DHT22;36982;51.474;7.228;2022-12-10T04:32:26;0.90;99.90
50969;DHT22;36982;51.474;7.228;2022-12-10T04:34:52;1.00;99.90
50969;DHT22;36982;51.474;7.228;2022-12-10T04:37:18;0.90;99.90
50969;DHT22;36982;51.474;7.228;2022-12-10T04:39:44;0.90;99.90
50969;DHT22;36982;51.474;7.228;2022-12-10T04:42:10;1.00;99.90
50969;DHT22;36982;51.474;7.228;2022-12-10T04:44:38;1.20;99.90
50969;DHT22;36982;51.474;7.228;2022-12-10T04:47:04;1.30;99.90
50969;DHT22;36982;51.474;7.228;2022-12-10T04:49:30;1.40;99.90
50969;DHT22;36982;51.474;7.228;2022-12-10T04:51:55;1.40;99.90
50969;DHT22;36982;51.474;7.228;2022-12-10T04:54:22;1.50;99.90
50969;DHT22;36982;51.474;7.228;2022-12-10T04:56:48;1.60;99.90
50969;DHT22;36982;51.474;7.228;2022-12-10T04:59:14;1.80;99.90
50969;DHT22;36982;51.474;7.228;2022-12-10T05:01:40;1.80;99.90
50969;DHT22;36982;51.474;7.228;2022-12-10T05:04:07;1.90;99.90
50969;DHT22;36982;51.474;7.228;2022-12-10T05:06:34;1.90;99.90
50969;DHT22;36982;51.474;7.228;2022-12-10T05:09:00;2.00;99.90
50969;DHT22;36982;51.474;7.228;2022-12-10T05:11:27;2.00;99.90
50969;DHT22;36982;51.474;7.228;2022-12-10T05:13:54;1.90;99.90
50969;DHT22;36982;51.474;7.228;2022-12-10T05:16:22;1.90;99.90
50969;DHT22;36982;51.474;7.228;2022-12-10T05:18:48;1.80;99.90
50969;DHT22;36982;51.474;7.228;2022-12-10T05:21:15;1.80;99.90
50969;DHT22;36982;51.474;7.228;2022-12-10T05:23:43;1.70;99.90
50969;DHT22;36982;51.474;7.228;2022-12-10T05:26:12;1.60;99.90
50969;DHT22;36982;51.474;7.228;2022-12-10T05:28:41;1.80;99.90
50969;DHT22;36982;51.474;7.228;2022-12-10T05:31:36;1.70;99.90
50969;DHT22;36982;51.474;7.228;2022-12-10T05:34:02;1.70;99.90
50969;DHT22;36982;51.474;7.228;2022-12-10T05:36:29;1.80;99.90
50969;DHT22;36982;51.474;7.228;2022-12-10T05:38:56;1.80;99.90
50969;DHT22;36982;51.474;7.228;2022-12-10T05:41:25;1.80;99.90
50969;DHT22;36982;51.474;7.228;2022-12-10T05:43:52;1.80;99.90
50969;DHT22;36982;51.474;7.228;2022-12-10T05:46:27;1.70;99.90
50969;DHT22;36982;51.474;7.228;2022-12-10T05:48:53;1.60;99.90
50969;DHT22;36982;51.474;7.228;2022-12-10T05:51:22;1.60;99.90
50969;DHT22;36982;51.474;7.228;2022-12-10T05:53:48;1.40;99.90
50969;DHT22;36982;51.474;7.228;2022-12-10T05:56:19;1.20;99.90
50969;DHT22;36982;51.474;7.228;2022-12-10T05:58:47;0.90;99.90
50969;DHT22;36982;51.474;7.228;2022-12-10T06:01:18;0.80;99.90
50969;DHT22;36982;51.474;7.228;2022-12-10T06:03:44;0.70;99.90
50969;DHT22;36982;51.474;7.228;2022-12-10T06:06:10;0.60;99.90
50969;DHT22;36982;51.474;7.228;2022-12-10T06:08:36;0.60;99.90
50969;DHT22;36982;51.474;7.228;2022-12-10T06:11:03;0.60;99.90
50969;DHT22;36982;51.474;7.228;2022-12-10T06:13:29;0.50;99.90
50969;DHT22;36982;51.474;7.228;2022-12-10T06:15:54;0.50;99.90
50969;DHT22;36982;51.474;7.228;2022-12-10T06:18:20;0.50;99.90
50969;DHT22;36982;51.474;7.228;2022-12-10T06:20:46;0.50;99.90
50969;DHT22;36982;51.474;7.228;2022-12-10T06:23:11;0.50;99.90
50969;DHT22;36982;51.474;7.228;2022-12-10T06:25:38;0.40;99.90
50969;DHT22;36982;51.474;7.228;2022-12-10T06:28:05;0.40;99.90
50969;DHT22;36982;51.474;7.228;2022-12-10T06:30:32;0.30;99.90
50969;DHT22;36982;51.474;7.228;2022-12-10T06:32:57;0.20;99.90
50969;DHT22;36982;51.474;7.228;2022-12-10T06:35:23;0.20;99.90
50969;DHT22;36982;51.474;7.228;2022-12-10T06:37:49;0.30;99.90
50969;DHT22;36982;51.474;7.228;2022-12-10T06:40:15;0.30;99.90
50969;DHT22;36982;51.474;7.228;2022-12-10T06:42:41;0.20;99.90
50969;DHT22;36982;51.474;7.228;2022-12-10T06:45:07;0.20;99.90
50969;DHT22;36982;51.474;7.228;2022-12-10T06:47:33;0.20;99.90
50969;DHT22;36982;51.474;7.228;2022-12-10T06:49:58;0.10;99.90
50969;DHT22;36982;51.474;7.228;2022-12-10T06:52:24;0.10;99.90
50969;DHT22;36982;51.474;7.228;2022-12-10T06:54:50;0.10;99.90
50969;DHT22;36982;51.474;7.228;2022-12-10T06:57:15;0.10;99.90
50969;DHT22;36982;51.474;7.228;2022-12-10T06:59:41;0.00;99.90
50969;DHT22;36982;51.474;7.228;2022-12-10T07:02:08;0.00;99.90
50969;DHT22;36982;51.474;7.228;2022-12-10T07:04:34;0.00;99.90
50969;DHT22;36982;51.474;7.228;2022-12-10T07:07:00;0.00;99.90
50969;DHT22;36982;51.474;7.228;2022-12-10T07:09:26;-0.10;99.90
50969;DHT22;36982;51.474;7.228;2022-12-10T07:11:51;-0.20;99.90
50969;DHT22;36982;51.474;7.228;2022-12-10T07:14:17;-0.30;99.90
50969;DHT22;36982;51.474;7.228;2022-12-10T07:16:43;-0.10;99.90
50969;DHT22;36982;51.474;7.228;2022-12-10T07:19:10;-0.10;99.90
50969;DHT22;36982;51.474;7.228;2022-12-10T07:21:37;-0.10;99.90
50969;DHT22;36982;51.474;7.228;2022-12-10T07:24:07;-0.10;99.90
50969;DHT22;36982;51.474;7.228;2022-12-10T07:26:36;-0.10;99.90
50969;DHT22;36982;51.474;7.228;2022-12-10T07:29:03;-0.10;99.90
50969;DHT22;36982;51.474;7.228;2022-12-10T07:31:30;-0.20;99.90
50969;DHT22;36982;51.474;7.228;2022-12-10T07:33:57;-0.30;99.90
50969;DHT22;36982;51.474;7.228;2022-12-10T07:36:24;-0.30;99.90
50969;DHT22;36982;51.474;7.228;2022-12-10T07:38:54;-0.40;99.90
50969;DHT22;36982;51.474;7.228;2022-12-10T07:41:21;-0.50;99.90
50969;DHT22;36982;51.474;7.228;2022-12-10T07:43:47;-0.40;99.90
50969;DHT22;36982;51.474;7.228;2022-12-10T07:46:25;-0.40;99.90
50969;DHT22;36982;51.474;7.228;2022-12-10T07:48:51;-0.40;99.90
50969;DHT22;36982;51.474;7.228;2022-12-10T07:51:19;-0.30;99.90
50969;DHT22;36982;51.474;7.228;2022-12-10T07:53:46;-0.20;99.90
50969;DHT22;36982;51.474;7.228;2022-12-10T07:56:12;-0.10;99.90
50969;DHT22;36982;51.474;7.228;2022-12-10T07:58:41;-0.10;99.90
50969;DHT22;36982;51.474;7.228;2022-12-10T08:01:09;-0.10;99.90
50969;DHT22;36982;51.474;7.228;2022-12-10T08:03:36;0.00;99.90
50969;DHT22;36982;51.474;7.228;2022-12-10T08:06:07;0.00;99.90
50969;DHT22;36982;51.474;7.228;2022-12-10T08:08:34;0.10;99.90
50969;DHT22;36982;51.474;7.228;2022-12-10T08:11:01;0.10;99.90
50969;DHT22;36982;51.474;7.228;2022-12-10T08:13:27;0.00;99.90
50969;DHT22;36982;51.474;7.228;2022-12-10T08:15:53;0.00;99.90
50969;DHT22;36982;51.474;7.228;2022-12-10T08:18:19;-0.10;99.90
50969;DHT22;36982;51.474;7.228;2022-12-10T08:20:45;-0.10;99.90
50969;DHT22;36982;51.474;7.228;2022-12-10T08:23:10;0.10;99.90
50969;DHT22;36982;51.474;7.228;2022-12-10T08:25:36;0.20;99.90
50969;DHT22;36982;51.474;7.228;2022-12-10T08:28:02;0.10;99.90
50969;DHT22;36982;51.474;7.228;2022-12-10T08:30:29;0.20;99.90
50969;DHT22;36982;51.474;7.228;2022-12-10T08:32:55;0.10;99.90
50969;DHT22;36982;51.474;7.228;2022-12-10T08:35:21;0.10;99.90
50969;DHT22;36982;51.474;7.228;2022-12-10T08:37:46;0.10;99.90
50969;DHT22;36982;51.474;7.228;2022-12-10T08:40:12;0.20;99.90
50969;DHT22;36982;51.474;7.228;2022-12-10T08:42:37;0.20;99.90
50969;DHT22;36982;51.474;7.228;2022-12-10T08:45:04;0.10;99.90
50969;DHT22;36982;51.474;7.228;2022-12-10T08:47:30;-0.10;99.90
50969;DHT22;36982;51.474;7.228;2022-12-10T08:49:55;-0.10;99.90
50969;DHT22;36982;51.474;7.228;2022-12-10T08:52:21;0.00;99.90
50969;DHT22;36982;51.474;7.228;2022-12-10T08:54:47;0.00;99.90
50969;DHT22;36982;51.474;7.228;2022-12-10T08:57:12;0.10;99.90
50969;DHT22;36982;51.474;7.228;2022-12-10T08:59:38;0.10;99.90
50969;DHT22;36982;51.474;7.228;2022-12-10T09:02:14;0.10;99.90
50969;DHT22;36982;51.474;7.228;2022-12-10T09:04:40;0.00;99.90
50969;DHT22;36982;51.474;7.228;2022-12-10T09:07:07;0.00;99.90
50969;DHT22;36982;51.474;7.228;2022-12-10T09:09:33;0.10;99.90
50969;DHT22;36982;51.474;7.228;2022-12-10T09:11:59;0.10;99.90
50969;DHT22;36982;51.474;7.228;2022-12-10T09:14:24;0.10;99.90
50969;DHT22;36982;51.474;7.228;2022-12-10T09:16:50;0.20;99.90
50969;DHT22;36982;51.474;7.228;2022-12-10T09:19:15;0.20;99.90
50969;DHT22;36982;51.474;7.228;2022-12-10T09:21:41;0.30;99.90
50969;DHT22;36982;51.474;7.228;2022-12-10T09:24:07;0.40;99.90
50969;DHT22;36982;51.474;7.228;2022-12-10T09:26:33;0.50;99.90
50969;DHT22;36982;51.474;7.228;2022-12-10T09:28:59;0.40;99.90
50969;DHT22;36982;51.474;7.228;2022-12-10T09:31:25;0.50;99.90
50969;DHT22;36982;51.474;7.228;2022-12-10T09:33:53;0.60;99.90
50969;DHT22;36982;51.474;7.228;2022-12-10T09:36:19;0.50;99.90
50969;DHT22;36982;51.474;7.228;2022-12-10T09:38:46;0.20;99.90
50969;DHT22;36982;51.474;7.228;2022-12-10T09:46:57;0.20;99.90
50969;DHT22;36982;51.474;7.228;2022-12-10T09:49:39;0.30;99.90
50969;DHT22;36982;51.474;7.228;2022-12-10T09:52:17;0.30;99.90
50969;DHT22;36982;51.474;7.228;2022-12-10T09:54:54;0.40;99.90
50969;DHT22;36982;51.474;7.228;2022-12-10T09:57:28;0.50;99.90
50969;DHT22;36982;51.474;7.228;2022-12-10T09:59:56;0.80;99.90
50969;DHT22;36982;51.474;7.228;2022-12-10T10:02:29;0.50;99.90
50969;DHT22;36982;51.474;7.228;2022-12-10T10:05:28;0.40;99.90
50969;DHT22;36982;51.474;7.228;2022-12-10T10:07:57;0.50;99.90
50969;DHT22;36982;51.474;7.228;2022-12-10T10:10:28;0.60;99.90
50969;DHT22;36982;51.474;7.228;2022-12-10T10:13:15;0.80;99.90
50969;DHT22;36982;51.474;7.228;2022-12-10T10:15:45;0.60;99.90
50969;DHT22;36982;51.474;7.228;2022-12-10T10:20:43;0.40;99.90
50969;DHT22;36982;51.474;7.228;2022-12-10T10:23:13;0.50;99.90
50969;DHT22;36982;51.474;7.228;2022-12-10T10:25:39;0.60;99.90
50969;DHT22;36982;51.474;7.228;2022-12-10T10:28:05;0.70;99.90
50969;DHT22;36982;51.474;7.228;2022-12-10T10:30:30;0.70;99.90
50969;DHT22;36982;51.474;7.228;2022-12-10T10:32:57;0.90;99.90
50969;DHT22;36982;51.474;7.228;2022-12-10T10:35:28;1.00;99.90
50969;DHT22;36982;51.474;7.228;2022-12-10T10:38:07;1.10;99.90
50969;DHT22;36982;51.474;7.228;2022-12-10T10:40:40;1.10;99.90
50969;DHT22;36982;51.474;7.228;2022-12-10T10:43:14;1.00;99.90
50969;DHT22;36982;51.474;7.228;2022-12-10T10:46:03;0.90;99.90
50969;DHT22;36982;51.474;7.228;2022-12-10T10:48:29;1.00;99.90
50969;DHT22;36982;51.474;7.228;2022-12-10T10:53:40;1.10;99.90
50969;DHT22;36982;51.474;7.228;2022-12-10T10:56:12;1.10;99.90
50969;DHT22;36982;51.474;7.228;2022-12-10T11:01:12;1.20;99.90
50969;DHT22;36982;51.474;7.228;2022-12-10T11:03:46;1.10;99.90
50969;DHT22;36982;51.474;7.228;2022-12-10T11:06:13;1.20;99.90
50969;DHT22;36982;51.474;7.228;2022-12-10T11:08:39;1.30;99.90
50969;DHT22;36982;51.474;7.228;2022-12-10T11:11:34;1.30;99.90
50969;DHT22;36982;51.474;7.228;2022-12-10T11:14:25;1.40;99.90
50969;DHT22;36982;51.474;7.228;2022-12-10T11:17:02;1.40;99.90
50969;DHT22;36982;51.474;7.228;2022-12-10T11:19:29;1.40;99.90
50969;DHT22;36982;51.474;7.228;2022-12-10T11:21:55;1.50;99.90
50969;DHT22;36982;51.474;7.228;2022-12-10T11:24:39;1.20;99.90
50969;DHT22;36982;51.474;7.228;2022-12-10T11:27:10;1.20;99.90
50969;DHT22;36982;51.474;7.228;2022-12-10T11:35:03;1.20;99.90
50969;DHT22;36982;51.474;7.228;2022-12-10T11:37:49;1.10;99.90
50969;DHT22;36982;51.474;7.228;2022-12-10T11:52:20;1.00;99.90
50969;DHT22;36982;51.474;7.228;2022-12-10T12:00:59;0.90;99.90
50969;DHT22;36982;51.474;7.228;2022-12-10T12:09:05;1.50;99.90
50969;DHT22;36982;51.474;7.228;2022-12-10T12:12:01;1.60;99.90
50969;DHT22;36982;51.474;7.228;2022-12-10T12:14:35;1.60;99.90
50969;DHT22;36982;51.474;7.228;2022-12-10T12:17:19;1.70;99.90
50969;DHT22;36982;51.474;7.228;2022-12-10T12:19:50;1.70;99.90
50969;DHT22;36982;51.474;7.228;2022-12-10T12:22:51;1.70;99.90
50969;DHT22;36982;51.474;7.228;2022-12-10T12:25:36;1.60;99.90
50969;DHT22;36982;51.474;7.228;2022-12-10T12:28:14;1.60;99.90
50969;DHT22;36982;51.474;7.228;2022-12-10T12:30:43;1.80;99.90
50969;DHT22;36982;51.474;7.228;2022-12-10T12:35:57;1.90;99.90
50969;DHT22;36982;51.474;7.228;2022-12-10T12:38:30;1.70;99.90
50969;DHT22;36982;51.474;7.228;2022-12-10T12:41:05;1.70;99.90
50969;DHT22;36982;51.474;7.228;2022-12-10T12:46:16;1.70;99.90
50969;DHT22;36982;51.474;7.228;2022-12-10T12:49:03;1.70;99.90
50969;DHT22;36982;51.474;7.228;2022-12-10T12:54:25;1.80;99.90
50969;DHT22;36982;51.474;7.228;2022-12-10T13:00:03;1.80;99.90
50969;DHT22;36982;51.474;7.228;2022-12-10T13:05:35;1.90;99.90
50969;DHT22;36982;51.474;7.228;2022-12-10T13:15:50;1.60;99.90
50969;DHT22;36982;51.474;7.228;2022-12-10T13:23:52;1.70;99.90
50969;DHT22;36982;51.474;7.228;2022-12-10T13:26:29;1.90;99.90
50969;DHT22;36982;51.474;7.228;2022-12-10T13:28:57;1.90;99.90
50969;DHT22;36982;51.474;7.228;2022-12-10T13:31:37;1.70;99.90
50969;DHT22;36982;51.474;7.228;2022-12-10T13:45:04;1.20;99.90
50969;DHT22;36982;51.474;7.228;2022-12-10T14:04:11;1.60;99.90
50969;DHT22;36982;51.474;7.228;2022-12-10T14:06:42;1.70;99.90
50969;DHT22;36982;51.474;7.228;2022-12-10T14:09:12;1.70;99.90
50969;DHT22;36982;51.474;7.228;2022-12-10T14:14:45;1.70;99.90
50969;DHT22;36982;51.474;7.228;2022-12-10T14:17:19;1.80;99.90
50969;DHT22;36982;51.474;7.228;2022-12-10T14:19:48;1.80;99.90
50969;DHT22;36982;51.474;7.228;2022-12-10T14:22:34;1.80;99.90
50969;DHT22;36982;51.474;7.228;2022-12-10T14:25:03;1.90;99.90
50969;DHT22;36982;51.474;7.228;2022-12-10T14:27:30;1.90;99.90
50969;DHT22;36982;51.474;7.228;2022-12-10T14:30:16;1.90;99.90
50969;DHT22;36982;51.474;7.228;2022-12-10T14:32:43;2.00;99.90
50969;DHT22;36982;51.474;7.228;2022-12-10T14:35:19;2.00;99.90
50969;DHT22;36982;51.474;7.228;2022-12-10T14:37:46;2.00;99.90
50969;DHT22;36982;51.474;7.228;2022-12-10T14:40:24;2.00;99.90
50969;DHT22;36982;51.474;7.228;2022-12-10T14:42:55;2.00;99.90
50969;DHT22;36982;51.474;7.228;2022-12-10T14:45:22;2.00;99.90
50969;DHT22;36982;51.474;7.228;2022-12-10T14:47:48;1.90;99.90
50969;DHT22;36982;51.474;7.228;2022-12-10T14:50:16;1.90;99.90
50969;DHT22;36982;51.474;7.228;2022-12-10T14:52:49;1.90;99.90
50969;DHT22;36982;51.474;7.228;2022-12-10T14:55:21;1.80;99.90
50969;DHT22;36982;51.474;7.228;2022-12-10T14:57:54;1.60;99.90
50969;DHT22;36982;51.474;7.228;2022-12-10T15:00:23;1.40;99.90
50969;DHT22;36982;51.474;7.228;2022-12-10T15:03:06;1.40;99.90
50969;DHT22;36982;51.474;7.228;2022-12-10T15:05:33;1.40;99.90
50969;DHT22;36982;51.474;7.228;2022-12-10T15:08:04;1.50;99.90
50969;DHT22;36982;51.474;7.228;2022-12-10T15:10:53;1.60;99.90
50969;DHT22;36982;51.474;7.228;2022-12-10T15:15:57;1.60;99.90
50969;DHT22;36982;51.474;7.228;2022-12-10T15:18:39;1.70;99.90
50969;DHT22;36982;51.474;7.228;2022-12-10T15:21:12;1.70;99.90
50969;DHT22;36982;51.474;7.228;2022-12-10T15:23:40;1.70;99.90
50969;DHT22;36982;51.474;7.228;2022-12-10T15:28:42;1.70;99.90
50969;DHT22;36982;51.474;7.228;2022-12-10T15:34:06;1.50;99.90
50969;DHT22;36982;51.474;7.228;2022-12-10T15:36:49;1.40;99.90
50969;DHT22;36982;51.474;7.228;2022-12-10T15:39:28;1.40;99.90
50969;DHT22;36982;51.474;7.228;2022-12-10T15:41:59;1.30;99.90
50969;DHT22;36982;51.474;7.228;2022-12-10T15:44:36;1.40;99.90
50969;DHT22;36982;51.474;7.228;2022-12-10T15:47:24;1.40;99.90
50969;DHT22;36982;51.474;7.228;2022-12-10T15:49:52;1.40;99.90
50969;DHT22;36982;51.474;7.228;2022-12-10T15:54:47;1.50;99.90
50969;DHT22;36982;51.474;7.228;2022-12-10T15:57:19;1.40;99.90
50969;DHT22;36982;51.474;7.228;2022-12-10T15:59:47;1.50;99.90
50969;DHT22;36982;51.474;7.228;2022-12-10T16:04:57;1.40;99.90
50969;DHT22;36982;51.474;7.228;2022-12-10T16:07:23;1.40;99.90
50969;DHT22;36982;51.474;7.228;2022-12-10T16:09:48;1.50;99.90
50969;DHT22;36982;51.474;7.228;2022-12-10T16:12:16;1.50;99.90
50969;DHT22;36982;51.474;7.228;2022-12-10T16:14:48;1.60;99.90
50969;DHT22;36982;51.474;7.228;2022-12-10T16:17:15;1.60;99.90
50969;DHT22;36982;51.474;7.228;2022-12-10T16:19:40;1.40;99.90
50969;DHT22;36982;51.474;7.228;2022-12-10T16:22:06;1.30;99.90
50969;DHT22;36982;51.474;7.228;2022-12-10T16:24:32;1.30;99.90
50969;DHT22;36982;51.474;7.228;2022-12-10T16:26:57;1.50;99.90
50969;DHT22;36982;51.474;7.228;2022-12-10T16:29:23;1.50;99.90
50969;DHT22;36982;51.474;7.228;2022-12-10T16:31:49;1.50;99.90
50969;DHT22;36982;51.474;7.228;2022-12-10T16:34:15;1.60;99.90
50969;DHT22;36982;51.474;7.228;2022-12-10T16:36:40;1.60;99.90
50969;DHT22;36982;51.474;7.228;2022-12-10T16:39:06;1.70;99.90
50969;DHT22;36982;51.474;7.228;2022-12-10T16:41:32;1.80;99.90
50969;DHT22;36982;51.474;7.228;2022-12-10T16:43:58;1.80;99.90
50969;DHT22;36982;51.474;7.228;2022-12-10T16:46:24;1.80;99.90
50969;DHT22;36982;51.474;7.228;2022-12-10T16:48:49;1.70;99.90
50969;DHT22;36982;51.474;7.228;2022-12-10T16:51:23;1.80;99.90
50969;DHT22;36982;51.474;7.228;2022-12-10T16:53:49;1.80;99.90
50969;DHT22;36982;51.474;7.228;2022-12-10T16:56:15;1.70;99.90
50969;DHT22;36982;51.474;7.228;2022-12-10T16:58:42;1.70;99.90
50969;DHT22;36982;51.474;7.228;2022-12-10T17:01:32;1.60;99.90
50969;DHT22;36982;51.474;7.228;2022-12-10T17:03:58;1.50;99.90
50969;DHT22;36982;51.474;7.228;2022-12-10T17:06:24;1.50;99.90
50969;DHT22;36982;51.474;7.228;2022-12-10T17:08:50;1.50;99.90
50969;DHT22;36982;51.474;7.228;2022-12-10T17:14:01;1.50;99.90
50969;DHT22;36982;51.474;7.228;2022-12-10T17:16:27;1.30;99.90
50969;DHT22;36982;51.474;7.228;2022-12-10T17:18:53;1.30;99.90
50969;DHT22;36982;51.474;7.228;2022-12-10T17:21:19;1.30;99.90
50969;DHT22;36982;51.474;7.228;2022-12-10T17:23:45;1.20;99.90
50969;DHT22;36982;51.474;7.228;2022-12-10T17:26:31;1.30;99.90
50969;DHT22;36982;51.474;7.228;2022-12-10T17:29:13;1.30;99.90
50969;DHT22;36982;51.474;7.228;2022-12-10T17:31:39;1.10;99.90
50969;DHT22;36982;51.474;7.228;2022-12-10T17:34:05;1.10;99.90
50969;DHT22;36982;51.474;7.228;2022-12-10T17:36:31;1.30;99.90
50969;DHT22;36982;51.474;7.228;2022-12-10T17:38:57;1.30;99.90
50969;DHT22;36982;51.474;7.228;2022-12-10T17:41:22;1.40;99.90
50969;DHT22;36982;51.474;7.228;2022-12-10T17:43:48;1.50;99.90
50969;DHT22;36982;51.474;7.228;2022-12-10T17:46:17;1.40;99.90
50969;DHT22;36982;51.474;7.228;2022-12-10T17:48:44;1.30;99.90
50969;DHT22;36982;51.474;7.228;2022-12-10T17:51:11;1.30;99.90
50969;DHT22;36982;51.474;7.228;2022-12-10T17:53:37;1.30;99.90
50969;DHT22;36982;51.474;7.228;2022-12-10T17:56:05;1.40;99.90
50969;DHT22;36982;51.474;7.228;2022-12-10T17:58:35;1.40;99.90
50969;DHT22;36982;51.474;7.228;2022-12-10T18:01:02;1.40;99.90
50969;DHT22;36982;51.474;7.228;2022-12-10T18:03:28;1.50;99.90
50969;DHT22;36982;51.474;7.228;2022-12-10T18:05:54;1.60;99.90